createdAt,value
2018-06-10T00:01:17.277Z,18.02
2018-06-10T00:03:44.391Z,17.80
2018-06-10T00:06:11.537Z,17.95
2018-06-10T00:08:38.664Z,18.05
2018-06-10T00:11:05.850Z,18.14
2018-06-10T00:13:32.976Z,18.06
2018-06-10T00:16:00.148Z,18.26
2018-06-10T00:18:27.325Z,18.11
2018-06-10T00:20:54.480Z,18.04
2018-06-10T00:23:21.612Z,18.26
2018-06-10T00:25:48.753Z,18.28
2018-06-10T00:28:20.425Z,18.28
2018-06-10T00:30:47.552Z,18.14
2018-06-10T00:33:14.656Z,18.13
2018-06-10T00:35:41.804Z,18.12
2018-06-10T00:38:08.892Z,18.21
2018-06-10T00:40:36.027Z,18.11
2018-06-10T00:43:03.204Z,18.21
2018-06-10T00:45:30.341Z,18.24
2018-06-10T00:47:57.511Z,18.25
2018-06-10T00:50:24.688Z,17.65
2018-06-10T00:52:51.848Z,17.54
2018-06-10T00:55:19.108Z,17.48
2018-06-10T00:57:46.273Z,17.57
2018-06-10T01:00:13.420Z,17.61
2018-06-10T01:02:40.536Z,17.50
2018-06-10T01:05:07.681Z,17.51
2018-06-10T01:07:34.836Z,17.70
2018-06-10T01:10:01.972Z,17.38
2018-06-10T01:12:29.157Z,17.44
2018-06-10T01:14:56.321Z,17.48
2018-06-10T01:17:23.481Z,17.59
2018-06-10T01:19:50.634Z,17.63
2018-06-10T01:22:17.784Z,17.61
2018-06-10T01:24:44.933Z,17.62
2018-06-10T01:27:12.092Z,17.70
2018-06-10T01:29:39.225Z,17.73
2018-06-10T01:32:06.400Z,17.62
2018-06-10T01:34:33.554Z,16.91
2018-06-10T01:37:00.712Z,17.32
2018-06-10T01:39:27.815Z,17.26
2018-06-10T01:41:54.973Z,17.34
2018-06-10T01:44:22.082Z,17.34
2018-06-10T01:46:49.202Z,17.51
2018-06-10T01:49:16.301Z,17.66
2018-06-10T01:51:43.479Z,17.69
2018-06-10T01:54:11.558Z,17.66
2018-06-10T01:56:38.847Z,17.71
2018-06-10T01:59:05.993Z,17.75
2018-06-10T02:01:33.172Z,17.81
2018-06-10T02:04:00.278Z,17.60
2018-06-10T02:06:27.442Z,17.81
2018-06-10T02:08:54.592Z,17.86
2018-06-10T02:11:21.743Z,18.01
2018-06-10T02:13:48.873Z,17.99
2018-06-10T02:16:16.017Z,17.99
2018-06-10T02:18:43.176Z,18.13
2018-06-10T02:21:10.334Z,18.06
2018-06-10T02:23:37.456Z,17.92
2018-06-10T02:26:04.589Z,17.81
2018-06-10T02:28:31.754Z,17.76
2018-06-10T02:30:58.892Z,17.82
2018-06-10T02:33:25.980Z,17.62
2018-06-10T02:35:53.109Z,17.44
2018-06-10T02:38:20.253Z,17.38
2018-06-10T02:40:47.433Z,17.25
2018-06-10T02:43:14.584Z,17.25
2018-06-10T02:45:41.764Z,17.17
2018-06-10T02:48:08.903Z,17.25
2018-06-10T02:50:36.079Z,17.30
2018-06-10T02:53:03.236Z,17.36
2018-06-10T02:55:30.477Z,17.47
2018-06-10T02:57:57.620Z,17.04
2018-06-10T03:00:24.762Z,17.46
2018-06-10T03:02:51.960Z,17.15
2018-06-10T03:05:19.103Z,17.21
2018-06-10T03:07:46.268Z,17.43
2018-06-10T03:10:13.371Z,17.47
2018-06-10T03:12:40.519Z,17.55
2018-06-10T03:15:07.673Z,17.59
2018-06-10T03:17:34.833Z,17.75
2018-06-10T03:20:02.000Z,17.65
2018-06-10T03:22:29.176Z,17.73
2018-06-10T03:24:56.372Z,17.33
2018-06-10T03:27:23.529Z,17.30
2018-06-10T03:29:50.685Z,17.49
2018-06-10T03:32:17.820Z,17.27
2018-06-10T03:34:44.943Z,17.59
2018-06-10T03:37:12.096Z,17.56
2018-06-10T03:39:39.304Z,17.49
2018-06-10T03:42:06.461Z,17.35
2018-06-10T03:44:33.584Z,17.42
2018-06-10T03:47:00.697Z,17.40
2018-06-10T03:49:27.844Z,17.22
2018-06-10T03:51:54.937Z,17.30
2018-06-10T03:54:22.055Z,17.29
2018-06-10T03:56:49.237Z,17.31
2018-06-10T03:59:16.340Z,17.59
2018-06-10T04:01:43.539Z,17.70
2018-06-10T04:04:10.666Z,17.72
2018-06-10T04:06:37.803Z,17.69
2018-06-10T04:09:06.228Z,17.76
2018-06-10T04:11:33.368Z,17.77
2018-06-10T04:14:00.521Z,17.84
2018-06-10T04:16:28.396Z,17.79
2018-06-10T04:18:55.907Z,17.86
2018-06-10T04:21:23.069Z,18.02
2018-06-10T04:23:50.195Z,18.08
2018-06-10T04:26:17.327Z,17.82
2018-06-10T04:28:44.514Z,17.83
2018-06-10T04:31:11.663Z,17.66
2018-06-10T04:33:38.796Z,17.41
2018-06-10T04:36:05.983Z,17.54
2018-06-10T04:38:33.088Z,17.31
2018-06-10T04:41:00.275Z,17.51
2018-06-10T04:43:27.424Z,17.65
2018-06-10T04:45:54.545Z,17.71
2018-06-10T04:48:21.689Z,17.62
2018-06-10T04:50:48.848Z,17.77
2018-06-10T04:53:15.997Z,17.97
2018-06-10T04:55:43.213Z,18.01
2018-06-10T04:58:10.586Z,18.13
2018-06-10T05:00:37.741Z,18.12
2018-06-10T05:03:04.927Z,17.80
2018-06-10T05:05:32.048Z,17.88
2018-06-10T05:07:59.215Z,17.92
2018-06-10T05:10:26.342Z,17.92
2018-06-10T05:12:53.444Z,18.15
2018-06-10T05:15:20.558Z,18.26
2018-06-10T05:17:47.741Z,18.34
2018-06-10T05:20:14.925Z,18.31
2018-06-10T05:22:42.018Z,18.29
2018-06-10T05:25:09.149Z,18.27
2018-06-10T05:27:36.305Z,18.40
2018-06-10T05:30:03.599Z,18.30
2018-06-10T05:32:30.796Z,18.14
2018-06-10T05:34:57.940Z,18.12
2018-06-10T05:37:25.084Z,18.28
2018-06-10T05:39:52.248Z,18.46
2018-06-10T05:42:19.373Z,18.41
2018-06-10T05:44:46.488Z,18.15
2018-06-10T05:47:13.648Z,18.22
2018-06-10T05:49:40.801Z,18.23
2018-06-10T05:52:07.986Z,18.43
2018-06-10T05:54:35.147Z,18.55
2018-06-10T05:57:02.292Z,18.65
2018-06-10T05:59:29.450Z,18.70
2018-06-10T06:01:56.666Z,18.68
2018-06-10T06:04:23.812Z,18.79
2018-06-10T06:06:50.999Z,18.80
2018-06-10T06:09:18.128Z,18.92
2018-06-10T06:11:45.299Z,18.92
2018-06-10T06:14:12.429Z,18.79
2018-06-10T06:16:39.604Z,18.86
2018-06-10T06:19:06.709Z,19.01
2018-06-10T06:21:33.808Z,18.96
2018-06-10T06:24:00.936Z,18.87
2018-06-10T06:26:28.136Z,18.97
2018-06-10T06:28:55.312Z,18.98
2018-06-10T06:31:22.455Z,18.90
2018-06-10T06:33:49.591Z,19.03
2018-06-10T06:36:16.875Z,19.19
2018-06-10T06:38:44.033Z,19.55
2018-06-10T06:41:11.218Z,19.82
2018-06-10T06:43:38.352Z,20.30
2018-06-10T06:46:05.522Z,20.39
2018-06-10T06:48:32.645Z,20.15
2018-06-10T06:50:59.763Z,20.65
2018-06-10T06:53:26.869Z,20.68
2018-06-10T06:55:54.101Z,20.71
2018-06-10T06:58:21.195Z,20.69
2018-06-10T07:00:48.356Z,20.44
2018-06-10T07:03:15.512Z,20.16
2018-06-10T07:05:42.673Z,19.91
2018-06-10T07:08:09.841Z,20.19
2018-06-10T07:10:37.042Z,20.06
2018-06-10T07:13:04.161Z,19.77
2018-06-10T07:15:31.327Z,20.11
2018-06-10T07:17:58.496Z,20.22
2018-06-10T07:20:32.524Z,20.41
2018-06-10T07:22:59.755Z,20.50
2018-06-10T07:25:26.908Z,20.73
2018-06-10T07:27:54.042Z,21.24
2018-06-10T07:30:21.198Z,21.39
2018-06-10T07:32:48.324Z,21.53
2018-06-10T07:35:15.413Z,21.23
2018-06-10T07:37:42.517Z,21.38
2018-06-10T07:40:09.713Z,21.76
2018-06-10T07:42:36.846Z,21.73
2018-06-10T07:45:03.964Z,22.10
2018-06-10T07:47:31.090Z,21.96
2018-06-10T07:49:58.262Z,22.01
2018-06-10T07:52:25.516Z,22.08
2018-06-10T07:54:52.683Z,22.26
2018-06-10T07:57:19.860Z,22.47
2018-06-10T07:59:47.055Z,22.86
2018-06-10T08:02:14.212Z,23.52
2018-06-10T08:04:41.367Z,23.13
2018-06-10T08:07:08.557Z,22.91
2018-06-10T08:09:35.796Z,23.10
2018-06-10T08:12:02.967Z,22.95
2018-06-10T08:14:30.118Z,22.86
2018-06-10T08:16:57.315Z,23.20
2018-06-10T08:19:24.486Z,23.46
2018-06-10T08:21:51.681Z,23.31
2018-06-10T08:24:18.842Z,23.39
2018-06-10T08:26:45.985Z,23.13
2018-06-10T08:29:13.140Z,23.75
2018-06-10T08:31:40.310Z,23.91
2018-06-10T08:34:07.468Z,23.78
2018-06-10T08:36:34.628Z,23.78
2018-06-10T08:39:01.814Z,23.89
2018-06-10T08:41:28.936Z,23.87
2018-06-10T08:43:56.152Z,23.92
2018-06-10T08:46:23.230Z,24.63
2018-06-10T08:48:50.407Z,24.95
2018-06-10T08:51:17.544Z,25.05
2018-06-10T08:53:44.673Z,24.95
2018-06-10T08:56:11.792Z,25.12
2018-06-10T08:58:38.967Z,24.90
2018-06-10T09:01:06.093Z,25.68
2018-06-10T09:03:33.236Z,26.09
2018-06-10T09:06:00.395Z,26.06
2018-06-10T09:08:27.604Z,26.26
2018-06-10T09:10:54.735Z,25.63
2018-06-10T09:13:21.868Z,25.39
2018-06-10T09:15:49.002Z,25.89
2018-06-10T09:18:16.115Z,25.80
2018-06-10T09:20:43.251Z,25.69
2018-06-10T09:23:10.351Z,25.95
2018-06-10T09:25:37.463Z,26.10
2018-06-10T09:28:04.813Z,26.44
2018-06-10T09:30:31.968Z,26.36
2018-06-10T09:32:59.151Z,26.85
2018-06-10T09:35:26.308Z,26.90
2018-06-10T09:37:53.452Z,26.56
2018-06-10T09:40:20.637Z,26.16
2018-06-10T09:42:47.793Z,26.67
2018-06-10T09:45:14.929Z,26.97
2018-06-10T09:47:42.050Z,27.35
2018-06-10T09:50:09.228Z,27.44
2018-06-10T09:52:36.382Z,27.52
2018-06-10T09:55:03.655Z,26.85
2018-06-10T09:57:30.750Z,26.70
2018-06-10T09:59:57.895Z,27.30
2018-06-10T10:02:25.064Z,27.32
2018-06-10T10:04:52.202Z,27.58
2018-06-10T10:07:19.356Z,26.95
2018-06-10T10:09:46.480Z,26.72
2018-06-10T10:12:13.647Z,27.06
2018-06-10T10:14:40.832Z,27.54
2018-06-10T10:17:07.943Z,27.87
2018-06-10T10:19:35.048Z,27.41
2018-06-10T10:22:02.291Z,26.64
2018-06-10T10:24:29.408Z,26.53
2018-06-10T10:26:56.566Z,26.56
2018-06-10T10:29:23.733Z,26.76
2018-06-10T10:31:50.899Z,26.48
2018-06-10T10:34:18.024Z,25.82
2018-06-10T10:36:45.135Z,26.60
2018-06-10T10:39:12.374Z,27.02
2018-06-10T10:41:39.505Z,27.22
2018-06-10T10:44:06.624Z,27.95
2018-06-10T10:46:33.779Z,28.06
2018-06-10T10:49:00.916Z,27.72
2018-06-10T10:51:28.134Z,27.04
2018-06-10T10:53:55.237Z,26.08
2018-06-10T10:56:22.385Z,26.14
2018-06-10T10:58:49.538Z,26.77
2018-06-10T11:01:16.800Z,27.86
2018-06-10T11:03:44.024Z,27.21
2018-06-10T11:06:11.117Z,27.10
2018-06-10T11:08:38.231Z,27.24
2018-06-10T11:11:05.470Z,27.01
2018-06-10T11:13:32.580Z,27.19
2018-06-10T11:15:59.715Z,27.03
2018-06-10T11:18:26.861Z,28.09
2018-06-10T11:20:54.006Z,28.32
2018-06-10T11:23:21.132Z,28.12
2018-06-10T11:25:48.301Z,27.69
2018-06-10T11:28:15.660Z,28.15
2018-06-10T11:30:42.831Z,28.80
2018-06-10T11:33:10.021Z,28.76
2018-06-10T11:35:37.120Z,28.97
2018-06-10T11:38:04.265Z,28.26
2018-06-10T11:40:31.388Z,29.09
2018-06-10T11:42:58.620Z,27.65
2018-06-10T11:45:25.780Z,28.85
2018-06-10T11:47:52.972Z,29.21
2018-06-10T11:50:20.117Z,29.21
2018-06-10T11:52:47.233Z,28.43
2018-06-10T11:55:14.365Z,28.44
2018-06-10T11:57:41.542Z,28.25
2018-06-10T12:00:08.675Z,28.81
2018-06-10T12:02:35.819Z,29.66
2018-06-10T12:05:03.129Z,29.55
2018-06-10T12:07:30.277Z,29.72
2018-06-10T12:09:57.398Z,29.26
2018-06-10T12:12:25.377Z,29.42
2018-06-10T12:14:52.512Z,29.79
2018-06-10T12:17:20.248Z,29.43
2018-06-10T12:19:47.404Z,28.77
2018-06-10T12:22:14.569Z,28.18
2018-06-10T12:24:41.666Z,27.36
2018-06-10T12:27:08.817Z,28.07
2018-06-10T12:29:35.925Z,29.25
2018-06-10T12:32:03.061Z,29.21
2018-06-10T12:34:30.208Z,30.26
2018-06-10T12:36:57.383Z,29.59
2018-06-10T12:39:24.586Z,29.05
2018-06-10T12:41:51.762Z,28.63
2018-06-10T12:44:18.896Z,28.16
2018-06-10T12:46:46.077Z,27.63
2018-06-10T12:49:13.263Z,28.32
2018-06-10T12:51:40.346Z,29.17
2018-06-10T12:54:07.511Z,28.78
2018-06-10T12:56:34.692Z,29.55
2018-06-10T12:59:01.889Z,28.88
2018-06-10T13:01:29.091Z,29.63
2018-06-10T13:03:56.414Z,28.55
2018-06-10T13:06:23.579Z,27.96
2018-06-10T13:08:50.742Z,28.54
2018-06-10T13:11:17.878Z,27.97
2018-06-10T13:13:45.058Z,29.30
2018-06-10T13:16:12.264Z,29.27
2018-06-10T13:18:39.989Z,29.39
2018-06-10T13:21:07.164Z,29.29
2018-06-10T13:23:34.397Z,29.80
2018-06-10T13:26:01.636Z,30.86
2018-06-10T13:28:28.809Z,29.78
2018-06-10T13:30:56.011Z,29.17
2018-06-10T13:33:23.223Z,29.05
2018-06-10T13:35:50.421Z,28.18
2018-06-10T13:38:17.642Z,27.83
2018-06-10T13:40:44.854Z,28.64
2018-06-10T13:43:12.051Z,29.62
2018-06-10T13:45:39.288Z,29.32
2018-06-10T13:48:06.847Z,29.07
2018-06-10T13:50:34.016Z,29.47
2018-06-10T13:53:01.225Z,29.98
2018-06-10T13:55:28.404Z,29.92
2018-06-10T13:57:55.659Z,29.56
2018-06-10T14:00:22.831Z,29.80
2018-06-10T14:02:50.078Z,30.79
2018-06-10T14:05:17.362Z,30.44
2018-06-10T14:07:44.606Z,29.89
2018-06-10T14:10:11.786Z,30.59
2018-06-10T14:12:39.011Z,30.23
2018-06-10T14:15:06.277Z,29.49
2018-06-10T14:17:33.450Z,28.68
2018-06-10T14:20:00.666Z,29.30
2018-06-10T14:22:27.847Z,29.56
2018-06-10T14:24:55.044Z,29.98
2018-06-10T14:27:22.209Z,30.07
2018-06-10T14:29:49.421Z,29.73
2018-06-10T14:32:16.630Z,29.61
2018-06-10T14:34:43.805Z,29.74
2018-06-10T14:37:11.094Z,30.16
2018-06-10T14:39:38.327Z,29.73
2018-06-10T14:42:05.790Z,29.99
2018-06-10T14:44:32.979Z,30.71
2018-06-10T14:47:00.129Z,30.58
2018-06-10T14:49:27.363Z,29.46
2018-06-10T14:51:54.581Z,28.97
2018-06-10T14:54:21.752Z,29.77
2018-06-10T14:56:48.930Z,29.62
2018-06-10T14:59:16.125Z,28.93
2018-06-10T15:01:43.335Z,29.69
2018-06-10T15:04:10.577Z,30.05
2018-06-10T15:06:37.754Z,30.55
2018-06-10T15:09:07.278Z,30.83
2018-06-10T15:11:34.402Z,31.14
2018-06-10T15:14:01.597Z,30.65
2018-06-10T15:16:28.825Z,30.29
2018-06-10T15:18:56.038Z,29.70
2018-06-10T15:21:23.211Z,29.40
2018-06-10T15:23:50.415Z,28.90
2018-06-10T15:26:17.689Z,28.82
2018-06-10T15:28:44.907Z,28.67
2018-06-10T15:31:12.037Z,29.08
2018-06-10T15:33:39.200Z,29.16
2018-06-10T15:36:06.365Z,29.80
2018-06-10T15:38:33.513Z,29.49
2018-06-10T15:41:00.614Z,29.50
2018-06-10T15:43:27.835Z,29.12
2018-06-10T15:45:55.017Z,28.21
2018-06-10T15:48:22.188Z,28.08
2018-06-10T15:50:49.356Z,28.11
2018-06-10T15:53:16.528Z,27.50
2018-06-10T15:55:43.699Z,27.62
2018-06-10T15:58:10.858Z,28.11
2018-06-10T16:00:38.076Z,27.53
2018-06-10T16:03:05.237Z,27.55
2018-06-10T16:05:32.486Z,27.83
2018-06-10T16:07:59.686Z,27.46
2018-06-10T16:10:26.850Z,27.37
2018-06-10T16:12:54.050Z,27.18
2018-06-10T16:15:21.215Z,27.56
2018-06-10T16:17:48.442Z,27.18
2018-06-10T16:20:15.528Z,27.38
2018-06-10T16:22:42.755Z,27.48
2018-06-10T16:25:09.895Z,27.86
2018-06-10T16:27:37.057Z,27.52
2018-06-10T16:30:05.001Z,27.75
2018-06-10T16:32:32.208Z,27.60
2018-06-10T16:34:59.337Z,27.33
2018-06-10T16:37:27.742Z,27.54
2018-06-10T16:39:54.919Z,27.23
2018-06-10T16:42:22.138Z,27.44
2018-06-10T16:44:49.313Z,27.23
2018-06-10T16:47:16.505Z,27.21
2018-06-10T16:49:43.745Z,27.42
2018-06-10T16:52:10.957Z,27.26
2018-06-10T16:54:38.166Z,27.02
2018-06-10T16:57:05.341Z,27.28
2018-06-10T16:59:32.578Z,27.31
2018-06-10T17:01:59.697Z,27.20
2018-06-10T17:04:26.885Z,27.12
2018-06-10T17:06:54.005Z,27.10
2018-06-10T17:09:21.199Z,26.94
2018-06-10T17:11:48.449Z,27.12
2018-06-10T17:14:15.608Z,27.24
2018-06-10T17:16:43.648Z,27.22
2018-06-10T17:19:10.852Z,27.01
2018-06-10T17:21:38.014Z,27.23
2018-06-10T17:24:05.231Z,27.22
2018-06-10T17:26:32.433Z,27.34
2018-06-10T17:28:59.645Z,27.15
2018-06-10T17:31:26.847Z,26.94
2018-06-10T17:33:54.001Z,26.60
2018-06-10T17:36:21.162Z,26.41
2018-06-10T17:38:48.332Z,26.40
2018-06-10T17:41:15.498Z,26.17
2018-06-10T17:43:42.665Z,26.06
2018-06-10T17:46:09.865Z,26.20
2018-06-10T17:48:37.061Z,26.26
2018-06-10T17:51:04.258Z,26.08
2018-06-10T17:53:31.417Z,25.95
2018-06-10T17:55:58.583Z,26.00
2018-06-10T17:58:25.714Z,25.82
2018-06-10T18:00:52.826Z,25.73
2018-06-10T18:03:20.012Z,25.57
2018-06-10T18:05:47.149Z,25.29
2018-06-10T18:08:14.314Z,25.06
2018-06-10T18:10:41.520Z,25.03
2018-06-10T18:13:09.107Z,24.94
2018-06-10T18:15:36.330Z,24.81
2018-06-10T18:18:03.530Z,24.84
2018-06-10T18:20:30.699Z,24.90
2018-06-10T18:22:57.851Z,24.78
2018-06-10T18:25:25.036Z,24.38
2018-06-10T18:27:52.335Z,24.34
2018-06-10T18:30:19.550Z,24.29
2018-06-10T18:32:46.733Z,24.07
2018-06-10T18:35:14.282Z,23.92
2018-06-10T18:37:41.438Z,23.84
2018-06-10T18:40:08.585Z,23.84
2018-06-10T18:42:35.820Z,23.95
2018-06-10T18:45:03.120Z,23.92
2018-06-10T18:47:30.459Z,23.93
2018-06-10T18:49:57.617Z,23.54
2018-06-10T18:52:24.799Z,23.61
2018-06-10T18:54:51.983Z,23.77
2018-06-10T18:57:19.149Z,23.52
2018-06-10T18:59:46.335Z,23.67
2018-06-10T19:02:13.498Z,23.63
2018-06-10T19:04:40.710Z,23.53
2018-06-10T19:07:07.902Z,23.44
2018-06-10T19:09:35.101Z,23.46
2018-06-10T19:12:02.351Z,23.23
2018-06-10T19:14:29.537Z,23.20
2018-06-10T19:16:56.748Z,23.08
2018-06-10T19:19:23.952Z,23.08
2018-06-10T19:21:51.149Z,22.99
2018-06-10T19:24:18.348Z,23.21
2018-06-10T19:26:45.587Z,23.08
2018-06-10T19:29:12.864Z,22.90
2018-06-10T19:31:39.993Z,22.88
2018-06-10T19:34:07.189Z,22.94
2018-06-10T19:36:34.365Z,22.67
2018-06-10T19:39:01.632Z,22.69
2018-06-10T19:41:28.806Z,22.90
2018-06-10T19:43:55.988Z,22.86
2018-06-10T19:46:23.253Z,22.80
2018-06-10T19:48:50.450Z,22.71
2018-06-10T19:51:17.652Z,22.55
2018-06-10T19:53:44.817Z,22.71
2018-06-10T19:56:12.008Z,22.58
2018-06-10T19:58:39.229Z,22.64
2018-06-10T20:01:06.388Z,22.71
2018-06-10T20:03:33.581Z,22.55
2018-06-10T20:06:00.760Z,22.09
2018-06-10T20:08:27.999Z,22.35
2018-06-10T20:10:55.218Z,22.25
2018-06-10T20:13:22.377Z,22.09
2018-06-10T20:15:49.564Z,21.94
2018-06-10T20:18:16.800Z,21.94
2018-06-10T20:20:44.001Z,21.89
2018-06-10T20:23:11.204Z,22.09
2018-06-10T20:25:38.434Z,22.01
2018-06-10T20:28:05.646Z,21.98
2018-06-10T20:30:32.847Z,21.96
2018-06-10T20:33:00.027Z,22.01
2018-06-10T20:35:27.210Z,21.94
2018-06-10T20:37:54.429Z,21.82
2018-06-10T20:40:21.567Z,21.60
2018-06-10T20:42:48.760Z,21.38
2018-06-10T20:45:15.948Z,21.61
2018-06-10T20:47:43.053Z,21.67
2018-06-10T20:50:10.274Z,21.57
2018-06-10T20:52:37.393Z,21.15
2018-06-10T20:55:04.593Z,21.52
2018-06-10T20:57:32.168Z,21.48
2018-06-10T20:59:59.347Z,21.64
2018-06-10T21:02:26.554Z,21.43
2018-06-10T21:04:53.738Z,20.99
2018-06-10T21:07:20.868Z,21.18
2018-06-10T21:09:48.043Z,21.25
2018-06-10T21:12:15.212Z,21.32
2018-06-10T21:14:42.496Z,21.40
2018-06-10T21:17:09.809Z,21.38
2018-06-10T21:19:37.038Z,21.39
2018-06-10T21:22:04.277Z,21.06
2018-06-10T21:24:31.422Z,20.98
2018-06-10T21:26:58.585Z,20.89
2018-06-10T21:29:25.774Z,20.80
2018-06-10T21:31:52.963Z,20.94
2018-06-10T21:34:20.113Z,20.96
2018-06-10T21:36:47.258Z,20.82
2018-06-10T21:39:14.408Z,20.76
2018-06-10T21:41:41.526Z,20.89
2018-06-10T21:44:08.689Z,20.54
2018-06-10T21:46:35.838Z,20.32
2018-06-10T21:49:03.004Z,20.36
2018-06-10T21:51:30.168Z,20.49
2018-06-10T21:53:57.310Z,20.61
2018-06-10T21:56:24.815Z,20.61
2018-06-10T21:58:52.240Z,20.53
2018-06-10T22:01:19.408Z,20.70
2018-06-10T22:03:46.599Z,20.74
2018-06-10T22:06:13.754Z,20.30
2018-06-10T22:08:40.945Z,20.55
2018-06-10T22:11:08.096Z,20.42
2018-06-10T22:13:35.357Z,20.16
2018-06-10T22:16:02.554Z,19.95
2018-06-10T22:18:29.720Z,19.56
2018-06-10T22:20:56.824Z,19.75
2018-06-10T22:23:23.972Z,19.71
2018-06-10T22:25:51.143Z,19.71
2018-06-10T22:28:18.344Z,19.87
2018-06-10T22:30:45.503Z,20.04
2018-06-10T22:33:12.677Z,20.06
2018-06-10T22:35:39.806Z,19.59
2018-06-10T22:38:07.014Z,19.47
2018-06-10T22:40:34.185Z,19.74
2018-06-10T22:43:01.332Z,20.05
2018-06-10T22:45:28.446Z,20.13
2018-06-10T22:47:55.545Z,20.26
2018-06-10T22:50:22.718Z,20.15
2018-06-10T22:53:00.048Z,20.08
2018-06-10T22:55:27.220Z,19.40
2018-06-10T22:57:54.399Z,19.25
2018-06-10T23:00:21.505Z,19.62
2018-06-10T23:02:48.666Z,19.75
2018-06-10T23:07:42.481Z,19.80
2018-06-10T23:10:09.617Z,19.63
2018-06-10T23:12:36.774Z,19.60
2018-06-10T23:15:04.128Z,19.52
2018-06-10T23:17:31.315Z,19.36
2018-06-10T23:19:58.476Z,19.29
2018-06-10T23:22:25.649Z,19.13
2018-06-10T23:24:52.751Z,19.11
2018-06-10T23:27:19.947Z,19.01
2018-06-10T23:29:47.109Z,18.97
2018-06-10T23:32:14.232Z,19.18
2018-06-10T23:34:41.401Z,19.32
2018-06-10T23:37:08.555Z,19.19
2018-06-10T23:39:35.701Z,19.31
2018-06-10T23:42:02.836Z,19.24
2018-06-10T23:44:29.980Z,18.62
2018-06-10T23:46:57.105Z,18.15
2018-06-10T23:49:24.265Z,18.41
2018-06-10T23:51:51.449Z,18.56
2018-06-10T23:54:18.621Z,18.67
2018-06-10T23:56:45.780Z,18.74
2018-06-10T23:59:12.952Z,18.99
